sensor_id;sensor_type;location;lat;lon;timestamp;P1;durP1;ratioP1;P2;durP2;ratioP2
39214;SDS011;24932;51.746;14.334;2023-03-14T00:00:40;7.05;;;0.88;;
39214;SDS011;24932;51.746;14.334;2023-03-14T00:04:40;0.95;;;0.82;;
39214;SDS011;24932;51.746;14.334;2023-03-14T00:08:41;1.0;;;0.7;;
39214;SDS011;24932;51.746;14.334;2023-03-14T00:12:41;1.2;;;0.7;;
39214;SDS011;24932;51.746;14.334;2023-03-14T00:16:40;0.77;;;0.77;;
39214;SDS011;24932;51.746;14.334;2023-03-14T00:20:39;1.33;;;0.8;;
39214;SDS011;24932;51.746;14.334;2023-03-14T00:24:41;2.67;;;1.02;;
39214;SDS011;24932;51.746;14.334;2023-03-14T00:28:41;1.42;;;1.02;;
39214;SDS011;24932;51.746;14.334;2023-03-14T00:32:40;1.02;;;1.0;;
39214;SDS011;24932;51.746;14.334;2023-03-14T00:36:40;0.82;;;0.73;;
39214;SDS011;24932;51.746;14.334;2023-03-14T00:40:41;1.0;;;0.9;;
39214;SDS011;24932;51.746;14.334;2023-03-14T00:44:40;1.77;;;1.0;;
39214;SDS011;24932;51.746;14.334;2023-03-14T00:48:40;0.88;;;0.77;;
39214;SDS011;24932;51.746;14.334;2023-03-14T00:52:40;1.1;;;0.8;;
39214;SDS011;24932;51.746;14.334;2023-03-14T00:56:40;2.7;;;0.82;;
39214;SDS011;24932;51.746;14.334;2023-03-14T01:00:40;2.05;;;0.7;;
39214;SDS011;24932;51.746;14.334;2023-03-14T01:04:40;1.73;;;0.8;;
39214;SDS011;24932;51.746;14.334;2023-03-14T01:08:40;0.95;;;0.8;;
39214;SDS011;24932;51.746;14.334;2023-03-14T01:12:40;1.35;;;0.85;;
39214;SDS011;24932;51.746;14.334;2023-03-14T01:16:41;8.1;;;1.48;;
39214;SDS011;24932;51.746;14.334;2023-03-14T01:20:40;3.7;;;1.52;;
39214;SDS011;24932;51.746;14.334;2023-03-14T01:24:40;1.9;;;1.2;;
39214;SDS011;24932;51.746;14.334;2023-03-14T01:28:41;3.97;;;2.15;;
39214;SDS011;24932;51.746;14.334;2023-03-14T01:32:41;3.62;;;1.17;;
39214;SDS011;24932;51.746;14.334;2023-03-14T01:36:40;7.72;;;1.5;;
39214;SDS011;24932;51.746;14.334;2023-03-14T01:40:41;1.6;;;1.12;;
39214;SDS011;24932;51.746;14.334;2023-03-14T01:44:48;6.47;;;1.23;;
39214;SDS011;24932;51.746;14.334;2023-03-14T01:48:42;2.6;;;1.45;;
39214;SDS011;24932;51.746;14.334;2023-03-14T01:52:41;1.8;;;1.58;;
39214;SDS011;24932;51.746;14.334;2023-03-14T01:56:40;2.4;;;1.65;;
39214;SDS011;24932;51.746;14.334;2023-03-14T02:00:40;4.53;;;2.05;;
39214;SDS011;24932;51.746;14.334;2023-03-14T02:04:40;3.12;;;1.98;;
39214;SDS011;24932;51.746;14.334;2023-03-14T02:08:41;2.97;;;1.9;;
39214;SDS011;24932;51.746;14.334;2023-03-14T02:12:40;4.97;;;2.53;;
39214;SDS011;24932;51.746;14.334;2023-03-14T02:16:41;3.53;;;2.1;;
39214;SDS011;24932;51.746;14.334;2023-03-14T02:20:42;7.22;;;2.1;;
39214;SDS011;24932;51.746;14.334;2023-03-14T02:24:42;5.32;;;2.12;;
39214;SDS011;24932;51.746;14.334;2023-03-14T02:28:40;3.03;;;2.12;;
39214;SDS011;24932;51.746;14.334;2023-03-14T02:32:42;3.33;;;2.03;;
39214;SDS011;24932;51.746;14.334;2023-03-14T02:36:40;3.22;;;2.08;;
39214;SDS011;24932;51.746;14.334;2023-03-14T02:40:40;4.4;;;1.95;;
39214;SDS011;24932;51.746;14.334;2023-03-14T02:44:48;2.4;;;1.77;;
39214;SDS011;24932;51.746;14.334;2023-03-14T02:48:41;2.0;;;1.8;;
39214;SDS011;24932;51.746;14.334;2023-03-14T02:52:40;5.65;;;1.73;;
39214;SDS011;24932;51.746;14.334;2023-03-14T02:56:40;2.65;;;1.8;;
39214;SDS011;24932;51.746;14.334;2023-03-14T03:00:40;4.47;;;1.87;;
39214;SDS011;24932;51.746;14.334;2023-03-14T03:04:40;3.28;;;1.87;;
39214;SDS011;24932;51.746;14.334;2023-03-14T03:08:40;3.58;;;1.8;;
39214;SDS011;24932;51.746;14.334;2023-03-14T03:12:41;3.15;;;1.87;;
39214;SDS011;24932;51.746;14.334;2023-03-14T03:16:41;3.12;;;2.03;;
39214;SDS011;24932;51.746;14.334;2023-03-14T03:20:40;2.03;;;1.8;;
39214;SDS011;24932;51.746;14.334;2023-03-14T03:24:40;2.33;;;1.9;;
39214;SDS011;24932;51.746;14.334;2023-03-14T03:28:40;2.65;;;1.98;;
39214;SDS011;24932;51.746;14.334;2023-03-14T03:32:40;1.7;;;1.5;;
39214;SDS011;24932;51.746;14.334;2023-03-14T03:36:40;3.1;;;1.8;;
39214;SDS011;24932;51.746;14.334;2023-03-14T03:40:40;4.28;;;1.67;;
39214;SDS011;24932;51.746;14.334;2023-03-14T03:44:40;3.08;;;1.3;;
39214;SDS011;24932;51.746;14.334;2023-03-14T03:48:40;1.92;;;1.65;;
39214;SDS011;24932;51.746;14.334;2023-03-14T03:52:40;1.95;;;1.75;;
39214;SDS011;24932;51.746;14.334;2023-03-14T03:56:40;2.37;;;1.85;;
39214;SDS011;24932;51.746;14.334;2023-03-14T04:00:40;1.6;;;1.37;;
39214;SDS011;24932;51.746;14.334;2023-03-14T04:04:41;1.73;;;1.25;;
39214;SDS011;24932;51.746;14.334;2023-03-14T04:08:41;1.4;;;0.9;;
39214;SDS011;24932;51.746;14.334;2023-03-14T04:12:40;1.85;;;0.95;;
39214;SDS011;24932;51.746;14.334;2023-03-14T04:16:41;1.25;;;1.0;;
39214;SDS011;24932;51.746;14.334;2023-03-14T04:20:40;1.5;;;0.88;;
39214;SDS011;24932;51.746;14.334;2023-03-14T04:24:41;1.37;;;0.9;;
39214;SDS011;24932;51.746;14.334;2023-03-14T04:28:39;1.77;;;0.98;;
39214;SDS011;24932;51.746;14.334;2023-03-14T04:32:41;1.62;;;0.73;;
39214;SDS011;24932;51.746;14.334;2023-03-14T04:36:40;0.75;;;0.6;;
39214;SDS011;24932;51.746;14.334;2023-03-14T04:40:40;1.0;;;0.52;;
39214;SDS011;24932;51.746;14.334;2023-03-14T04:44:40;0.85;;;0.5;;
39214;SDS011;24932;51.746;14.334;2023-03-14T04:48:39;0.3;;;0.3;;
39214;SDS011;24932;51.746;14.334;2023-03-14T04:52:40;0.5;;;0.32;;
39214;SDS011;24932;51.746;14.334;2023-03-14T04:56:40;1.75;;;0.4;;
39214;SDS011;24932;51.746;14.334;2023-03-14T05:00:41;0.8;;;0.6;;
39214;SDS011;24932;51.746;14.334;2023-03-14T05:04:41;0.22;;;0.22;;
39214;SDS011;24932;51.746;14.334;2023-03-14T05:08:40;1.73;;;0.5;;
39214;SDS011;24932;51.746;14.334;2023-03-14T05:12:40;0.4;;;0.4;;
39214;SDS011;24932;51.746;14.334;2023-03-14T05:16:40;1.73;;;1.08;;
39214;SDS011;24932;51.746;14.334;2023-03-14T05:20:40;1.9;;;0.5;;
39214;SDS011;24932;51.746;14.334;2023-03-14T05:24:40;3.25;;;0.5;;
39214;SDS011;24932;51.746;14.334;2023-03-14T05:28:40;0.7;;;0.52;;
39214;SDS011;24932;51.746;14.334;2023-03-14T05:32:40;2.7;;;0.93;;
39214;SDS011;24932;51.746;14.334;2023-03-14T05:36:40;1.7;;;0.37;;
39214;SDS011;24932;51.746;14.334;2023-03-14T05:40:40;6.05;;;2.3;;
39214;SDS011;24932;51.746;14.334;2023-03-14T05:44:41;3.15;;;0.8;;
39214;SDS011;24932;51.746;14.334;2023-03-14T05:48:41;1.73;;;0.88;;
39214;SDS011;24932;51.746;14.334;2023-03-14T05:52:40;1.6;;;0.35;;
39214;SDS011;24932;51.746;14.334;2023-03-14T05:56:40;1.75;;;0.52;;
39214;SDS011;24932;51.746;14.334;2023-03-14T06:00:40;0.82;;;0.3;;
39214;SDS011;24932;51.746;14.334;2023-03-14T06:04:40;3.45;;;0.5;;
39214;SDS011;24932;51.746;14.334;2023-03-14T06:08:40;0.75;;;0.4;;
39214;SDS011;24932;51.746;14.334;2023-03-14T06:12:40;0.3;;;0.3;;
39214;SDS011;24932;51.746;14.334;2023-03-14T06:16:41;4.28;;;0.3;;
39214;SDS011;24932;51.746;14.334;2023-03-14T06:20:40;3.67;;;0.6;;
39214;SDS011;24932;51.746;14.334;2023-03-14T06:24:40;0.9;;;0.4;;
39214;SDS011;24932;51.746;14.334;2023-03-14T06:28:40;3.08;;;0.5;;
39214;SDS011;24932;51.746;14.334;2023-03-14T06:32:40;2.65;;;0.68;;
39214;SDS011;24932;51.746;14.334;2023-03-14T06:36:40;2.12;;;0.43;;
39214;SDS011;24932;51.746;14.334;2023-03-14T06:40:41;1.6;;;0.8;;
39214;SDS011;24932;51.746;14.334;2023-03-14T06:44:41;4.12;;;0.5;;
39214;SDS011;24932;51.746;14.334;2023-03-14T06:48:40;3.4;;;0.75;;
39214;SDS011;24932;51.746;14.334;2023-03-14T06:52:40;4.53;;;0.5;;
39214;SDS011;24932;51.746;14.334;2023-03-14T06:56:40;1.45;;;0.7;;
39214;SDS011;24932;51.746;14.334;2023-03-14T07:00:41;0.85;;;0.57;;
39214;SDS011;24932;51.746;14.334;2023-03-14T07:04:40;1.92;;;0.57;;
39214;SDS011;24932;51.746;14.334;2023-03-14T07:08:39;1.55;;;0.4;;
39214;SDS011;24932;51.746;14.334;2023-03-14T07:12:41;3.22;;;0.8;;
39214;SDS011;24932;51.746;14.334;2023-03-14T07:16:40;6.2;;;1.02;;
39214;SDS011;24932;51.746;14.334;2023-03-14T07:20:40;0.95;;;0.85;;
39214;SDS011;24932;51.746;14.334;2023-03-14T07:24:41;1.9;;;0.6;;
39214;SDS011;24932;51.746;14.334;2023-03-14T07:28:40;1.9;;;0.6;;
39214;SDS011;24932;51.746;14.334;2023-03-14T07:32:40;1.8;;;0.68;;
39214;SDS011;24932;51.746;14.334;2023-03-14T07:36:40;1.0;;;0.52;;
39214;SDS011;24932;51.746;14.334;2023-03-14T07:40:40;2.4;;;0.4;;
39214;SDS011;24932;51.746;14.334;2023-03-14T07:44:40;4.8;;;1.23;;
39214;SDS011;24932;51.746;14.334;2023-03-14T07:48:41;2.12;;;0.55;;
39214;SDS011;24932;51.746;14.334;2023-03-14T07:52:40;9.32;;;1.08;;
39214;SDS011;24932;51.746;14.334;2023-03-14T07:56:41;3.05;;;1.2;;
39214;SDS011;24932;51.746;14.334;2023-03-14T08:00:40;3.83;;;0.8;;
39214;SDS011;24932;51.746;14.334;2023-03-14T08:04:40;9.0;;;1.1;;
39214;SDS011;24932;51.746;14.334;2023-03-14T08:08:39;2.47;;;1.02;;
39214;SDS011;24932;51.746;14.334;2023-03-14T08:12:41;5.62;;;0.7;;
39214;SDS011;24932;51.746;14.334;2023-03-14T08:16:40;6.5;;;1.8;;
39214;SDS011;24932;51.746;14.334;2023-03-14T08:20:40;2.1;;;0.8;;
39214;SDS011;24932;51.746;14.334;2023-03-14T08:24:40;1.7;;;0.62;;
39214;SDS011;24932;51.746;14.334;2023-03-14T08:28:40;3.85;;;0.62;;
39214;SDS011;24932;51.746;14.334;2023-03-14T08:32:41;2.55;;;1.2;;
39214;SDS011;24932;51.746;14.334;2023-03-14T08:36:40;6.53;;;0.85;;
39214;SDS011;24932;51.746;14.334;2023-03-14T08:40:41;4.93;;;0.62;;
39214;SDS011;24932;51.746;14.334;2023-03-14T08:44:40;6.65;;;0.68;;
39214;SDS011;24932;51.746;14.334;2023-03-14T08:48:40;1.42;;;0.47;;
39214;SDS011;24932;51.746;14.334;2023-03-14T08:52:40;4.93;;;1.08;;
39214;SDS011;24932;51.746;14.334;2023-03-14T08:56:41;4.75;;;0.88;;
39214;SDS011;24932;51.746;14.334;2023-03-14T09:00:40;4.35;;;1.0;;
39214;SDS011;24932;51.746;14.334;2023-03-14T09:04:40;2.97;;;1.62;;
39214;SDS011;24932;51.746;14.334;2023-03-14T09:08:40;2.78;;;0.6;;
39214;SDS011;24932;51.746;14.334;2023-03-14T09:12:40;3.25;;;1.35;;
39214;SDS011;24932;51.746;14.334;2023-03-14T09:16:40;3.0;;;0.8;;
39214;SDS011;24932;51.746;14.334;2023-03-14T09:20:40;5.4;;;1.17;;
39214;SDS011;24932;51.746;14.334;2023-03-14T09:24:41;4.1;;;1.48;;
39214;SDS011;24932;51.746;14.334;2023-03-14T09:28:39;1.9;;;0.5;;
39214;SDS011;24932;51.746;14.334;2023-03-14T09:32:40;1.52;;;0.5;;
39214;SDS011;24932;51.746;14.334;2023-03-14T09:36:41;2.47;;;0.85;;
39214;SDS011;24932;51.746;14.334;2023-03-14T09:40:41;5.85;;;0.8;;
39214;SDS011;24932;51.746;14.334;2023-03-14T09:44:42;1.08;;;0.5;;
39214;SDS011;24932;51.746;14.334;2023-03-14T09:48:39;2.55;;;0.65;;
39214;SDS011;24932;51.746;14.334;2023-03-14T09:52:41;4.05;;;0.52;;
39214;SDS011;24932;51.746;14.334;2023-03-14T09:56:40;1.83;;;0.7;;
39214;SDS011;24932;51.746;14.334;2023-03-14T10:00:41;1.5;;;0.5;;
39214;SDS011;24932;51.746;14.334;2023-03-14T10:04:41;1.48;;;0.65;;
39214;SDS011;24932;51.746;14.334;2023-03-14T10:08:40;8.9;;;0.68;;
39214;SDS011;24932;51.746;14.334;2023-03-14T10:12:40;3.67;;;0.6;;
39214;SDS011;24932;51.746;14.334;2023-03-14T10:16:41;4.12;;;0.7;;
39214;SDS011;24932;51.746;14.334;2023-03-14T10:20:41;4.0;;;0.65;;
39214;SDS011;24932;51.746;14.334;2023-03-14T10:24:39;2.58;;;0.45;;
39214;SDS011;24932;51.746;14.334;2023-03-14T10:28:41;3.4;;;0.37;;
39214;SDS011;24932;51.746;14.334;2023-03-14T10:32:40;1.75;;;0.43;;
39214;SDS011;24932;51.746;14.334;2023-03-14T10:36:40;3.7;;;0.73;;
39214;SDS011;24932;51.746;14.334;2023-03-14T10:40:45;2.97;;;0.62;;
39214;SDS011;24932;51.746;14.334;2023-03-14T10:44:40;2.8;;;0.77;;
39214;SDS011;24932;51.746;14.334;2023-03-14T10:48:39;2.67;;;0.62;;
39214;SDS011;24932;51.746;14.334;2023-03-14T10:53:02;0.93;;;0.7;;
39214;SDS011;24932;51.746;14.334;2023-03-14T10:56:41;2.85;;;0.7;;
39214;SDS011;24932;51.746;14.334;2023-03-14T11:00:40;4.62;;;1.87;;
39214;SDS011;24932;51.746;14.334;2023-03-14T11:04:44;1.0;;;0.5;;
39214;SDS011;24932;51.746;14.334;2023-03-14T11:08:42;3.87;;;0.6;;
39214;SDS011;24932;51.746;14.334;2023-03-14T11:12:41;2.0;;;0.7;;
39214;SDS011;24932;51.746;14.334;2023-03-14T11:16:43;1.85;;;0.57;;
39214;SDS011;24932;51.746;14.334;2023-03-14T11:20:41;2.4;;;0.75;;
39214;SDS011;24932;51.746;14.334;2023-03-14T11:24:45;1.95;;;0.65;;
39214;SDS011;24932;51.746;14.334;2023-03-14T11:28:40;2.83;;;0.68;;
39214;SDS011;24932;51.746;14.334;2023-03-14T11:32:41;0.85;;;0.4;;
39214;SDS011;24932;51.746;14.334;2023-03-14T11:36:41;0.88;;;0.45;;
39214;SDS011;24932;51.746;14.334;2023-03-14T11:40:40;1.35;;;0.4;;
39214;SDS011;24932;51.746;14.334;2023-03-14T11:44:40;3.7;;;0.57;;
39214;SDS011;24932;51.746;14.334;2023-03-14T11:48:42;6.2;;;0.45;;
39214;SDS011;24932;51.746;14.334;2023-03-14T11:52:41;1.17;;;0.4;;
39214;SDS011;24932;51.746;14.334;2023-03-14T11:56:41;4.2;;;0.4;;
39214;SDS011;24932;51.746;14.334;2023-03-14T12:00:41;0.9;;;0.45;;
39214;SDS011;24932;51.746;14.334;2023-03-14T12:04:42;0.8;;;0.37;;
39214;SDS011;24932;51.746;14.334;2023-03-14T12:08:44;1.7;;;0.43;;
39214;SDS011;24932;51.746;14.334;2023-03-14T12:12:41;1.37;;;0.85;;
39214;SDS011;24932;51.746;14.334;2023-03-14T12:16:41;0.62;;;0.4;;
39214;SDS011;24932;51.746;14.334;2023-03-14T12:20:40;1.42;;;0.5;;
39214;SDS011;24932;51.746;14.334;2023-03-14T12:24:44;1.73;;;0.37;;
39214;SDS011;24932;51.746;14.334;2023-03-14T12:28:41;1.35;;;0.43;;
39214;SDS011;24932;51.746;14.334;2023-03-14T12:32:40;0.85;;;0.32;;
39214;SDS011;24932;51.746;14.334;2023-03-14T12:37:14;1.12;;;0.6;;
39214;SDS011;24932;51.746;14.334;2023-03-14T12:40:54;0.75;;;0.4;;
39214;SDS011;24932;51.746;14.334;2023-03-14T12:44:42;1.02;;;0.5;;
39214;SDS011;24932;51.746;14.334;2023-03-14T12:48:39;1.25;;;0.7;;
39214;SDS011;24932;51.746;14.334;2023-03-14T12:52:45;2.22;;;0.6;;
39214;SDS011;24932;51.746;14.334;2023-03-14T12:56:45;1.48;;;0.52;;
39214;SDS011;24932;51.746;14.334;2023-03-14T13:00:40;0.82;;;0.3;;
39214;SDS011;24932;51.746;14.334;2023-03-14T13:04:43;1.33;;;0.77;;
39214;SDS011;24932;51.746;14.334;2023-03-14T13:08:41;0.32;;;0.3;;
39214;SDS011;24932;51.746;14.334;2023-03-14T13:12:41;1.92;;;0.3;;
39214;SDS011;24932;51.746;14.334;2023-03-14T13:16:41;3.22;;;0.65;;
39214;SDS011;24932;51.746;14.334;2023-03-14T13:20:41;1.95;;;0.3;;
39214;SDS011;24932;51.746;14.334;2023-03-14T13:24:40;3.67;;;0.5;;
39214;SDS011;24932;51.746;14.334;2023-03-14T13:28:40;0.82;;;0.3;;
39214;SDS011;24932;51.746;14.334;2023-03-14T13:32:41;0.35;;;0.35;;
39214;SDS011;24932;51.746;14.334;2023-03-14T13:36:41;1.85;;;0.95;;
39214;SDS011;24932;51.746;14.334;2023-03-14T13:40:41;0.75;;;0.47;;
39214;SDS011;24932;51.746;14.334;2023-03-14T13:44:39;0.43;;;0.3;;
39214;SDS011;24932;51.746;14.334;2023-03-14T13:48:43;0.3;;;0.3;;
39214;SDS011;24932;51.746;14.334;2023-03-14T13:52:40;3.62;;;0.4;;
39214;SDS011;24932;51.746;14.334;2023-03-14T13:56:42;1.08;;;0.4;;
39214;SDS011;24932;51.746;14.334;2023-03-14T14:00:41;2.55;;;0.7;;
39214;SDS011;24932;51.746;14.334;2023-03-14T14:04:40;0.4;;;0.4;;
39214;SDS011;24932;51.746;14.334;2023-03-14T14:08:40;1.65;;;0.5;;
39214;SDS011;24932;51.746;14.334;2023-03-14T14:12:42;3.8;;;1.37;;
39214;SDS011;24932;51.746;14.334;2023-03-14T14:16:40;0.4;;;0.4;;
39214;SDS011;24932;51.746;14.334;2023-03-14T14:20:40;0.65;;;0.32;;
39214;SDS011;24932;51.746;14.334;2023-03-14T14:24:40;2.67;;;0.5;;
39214;SDS011;24932;51.746;14.334;2023-03-14T14:28:40;4.32;;;0.7;;
39214;SDS011;24932;51.746;14.334;2023-03-14T14:32:40;1.23;;;0.4;;
39214;SDS011;24932;51.746;14.334;2023-03-14T14:36:39;0.8;;;0.45;;
39214;SDS011;24932;51.746;14.334;2023-03-14T14:40:43;0.43;;;0.28;;
39214;SDS011;24932;51.746;14.334;2023-03-14T14:44:39;0.7;;;0.3;;
39214;SDS011;24932;51.746;14.334;2023-03-14T14:48:40;0.88;;;0.32;;
39214;SDS011;24932;51.746;14.334;2023-03-14T14:52:41;3.1;;;0.25;;
39214;SDS011;24932;51.746;14.334;2023-03-14T14:56:40;1.62;;;0.3;;
39214;SDS011;24932;51.746;14.334;2023-03-14T15:00:40;1.35;;;0.5;;
39214;SDS011;24932;51.746;14.334;2023-03-14T15:04:40;0.2;;;0.2;;
39214;SDS011;24932;51.746;14.334;2023-03-14T15:08:40;3.72;;;0.37;;
39214;SDS011;24932;51.746;14.334;2023-03-14T15:12:40;0.37;;;0.2;;
39214;SDS011;24932;51.746;14.334;2023-03-14T15:16:41;0.6;;;0.4;;
39214;SDS011;24932;51.746;14.334;2023-03-14T15:20:41;0.55;;;0.2;;
39214;SDS011;24932;51.746;14.334;2023-03-14T15:24:41;1.33;;;0.47;;
39214;SDS011;24932;51.746;14.334;2023-03-14T15:28:40;0.82;;;0.52;;
39214;SDS011;24932;51.746;14.334;2023-03-14T15:32:41;1.12;;;0.3;;
39214;SDS011;24932;51.746;14.334;2023-03-14T15:36:41;0.35;;;0.35;;
39214;SDS011;24932;51.746;14.334;2023-03-14T15:40:41;1.75;;;0.5;;
39214;SDS011;24932;51.746;14.334;2023-03-14T15:44:41;0.8;;;0.4;;
39214;SDS011;24932;51.746;14.334;2023-03-14T15:48:39;2.05;;;0.43;;
39214;SDS011;24932;51.746;14.334;2023-03-14T15:52:40;2.15;;;0.5;;
39214;SDS011;24932;51.746;14.334;2023-03-14T15:56:41;0.65;;;0.4;;
39214;SDS011;24932;51.746;14.334;2023-03-14T16:00:41;1.33;;;0.4;;
39214;SDS011;24932;51.746;14.334;2023-03-14T16:04:41;0.75;;;0.4;;
39214;SDS011;24932;51.746;14.334;2023-03-14T16:08:40;0.95;;;0.4;;
39214;SDS011;24932;51.746;14.334;2023-03-14T16:12:40;1.58;;;0.37;;
39214;SDS011;24932;51.746;14.334;2023-03-14T16:16:40;1.3;;;0.82;;
39214;SDS011;24932;51.746;14.334;2023-03-14T16:20:52;0.2;;;0.2;;
39214;SDS011;24932;51.746;14.334;2023-03-14T16:24:40;0.82;;;0.47;;
39214;SDS011;24932;51.746;14.334;2023-03-14T16:28:40;1.02;;;0.3;;
39214;SDS011;24932;51.746;14.334;2023-03-14T16:32:40;0.7;;;0.4;;
39214;SDS011;24932;51.746;14.334;2023-03-14T16:36:40;1.12;;;0.55;;
39214;SDS011;24932;51.746;14.334;2023-03-14T16:40:40;1.77;;;0.4;;
39214;SDS011;24932;51.746;14.334;2023-03-14T16:44:40;0.8;;;0.4;;
39214;SDS011;24932;51.746;14.334;2023-03-14T16:48:40;3.17;;;0.6;;
39214;SDS011;24932;51.746;14.334;2023-03-14T16:52:40;0.57;;;0.5;;
39214;SDS011;24932;51.746;14.334;2023-03-14T16:56:39;0.57;;;0.22;;
39214;SDS011;24932;51.746;14.334;2023-03-14T17:00:40;0.4;;;0.2;;
39214;SDS011;24932;51.746;14.334;2023-03-14T17:04:40;0.47;;;0.2;;
39214;SDS011;24932;51.746;14.334;2023-03-14T17:08:40;0.2;;;0.13;;
39214;SDS011;24932;51.746;14.334;2023-03-14T17:12:40;0.1;;;0.1;;
39214;SDS011;24932;51.746;14.334;2023-03-14T17:16:41;0.2;;;0.2;;
39214;SDS011;24932;51.746;14.334;2023-03-14T17:20:41;0.93;;;0.27;;
39214;SDS011;24932;51.746;14.334;2023-03-14T17:24:40;1.43;;;0.3;;
39214;SDS011;24932;51.746;14.334;2023-03-14T17:28:40;0.2;;;0.2;;
39214;SDS011;24932;51.746;14.334;2023-03-14T17:32:40;0.2;;;0.2;;
39214;SDS011;24932;51.746;14.334;2023-03-14T17:36:40;0.4;;;0.23;;
39214;SDS011;24932;51.746;14.334;2023-03-14T17:40:43;0.3;;;0.3;;
39214;SDS011;24932;51.746;14.334;2023-03-14T17:44:39;0.53;;;0.53;;
39214;SDS011;24932;51.746;14.334;2023-03-14T17:48:40;0.1;;;0.1;;
39214;SDS011;24932;51.746;14.334;2023-03-14T17:52:40;1.7;;;0.3;;
39214;SDS011;24932;51.746;14.334;2023-03-14T17:56:40;0.2;;;0.2;;
39214;SDS011;24932;51.746;14.334;2023-03-14T18:00:40;0.6;;;0.4;;
39214;SDS011;24932;51.746;14.334;2023-03-14T18:04:41;0.3;;;0.3;;
39214;SDS011;24932;51.746;14.334;2023-03-14T18:08:41;0.33;;;0.3;;
39214;SDS011;24932;51.746;14.334;2023-03-14T18:12:41;10.67;;;0.9;;
39214;SDS011;24932;51.746;14.334;2023-03-14T18:16:40;0.5;;;0.43;;
39214;SDS011;24932;51.746;14.334;2023-03-14T18:20:40;0.4;;;0.4;;
39214;SDS011;24932;51.746;14.334;2023-03-14T18:24:41;0.5;;;0.3;;
39214;SDS011;24932;51.746;14.334;2023-03-14T18:28:40;2.43;;;0.6;;
39214;SDS011;24932;51.746;14.334;2023-03-14T18:32:40;0.37;;;0.37;;
39214;SDS011;24932;51.746;14.334;2023-03-14T18:36:40;0.87;;;0.47;;
39214;SDS011;24932;51.746;14.334;2023-03-14T18:40:41;4.23;;;0.67;;
39214;SDS011;24932;51.746;14.334;2023-03-14T18:44:40;3.87;;;1.2;;
39214;SDS011;24932;51.746;14.334;2023-03-14T18:48:39;3.87;;;0.87;;
39214;SDS011;24932;51.746;14.334;2023-03-14T18:52:40;8.33;;;1.93;;
39214;SDS011;24932;51.746;14.334;2023-03-14T18:56:40;11.93;;;1.63;;
39214;SDS011;24932;51.746;14.334;2023-03-14T19:00:41;16.6;;;1.47;;
39214;SDS011;24932;51.746;14.334;2023-03-14T19:04:40;2.93;;;1.07;;
39214;SDS011;24932;51.746;14.334;2023-03-14T19:08:40;5.87;;;1.07;;
39214;SDS011;24932;51.746;14.334;2023-03-14T19:12:41;4.03;;;1.53;;
39214;SDS011;24932;51.746;14.334;2023-03-14T19:16:41;1.67;;;1.57;;
39214;SDS011;24932;51.746;14.334;2023-03-14T19:20:40;2.6;;;0.73;;
39214;SDS011;24932;51.746;14.334;2023-03-14T19:24:40;8.53;;;2.4;;
39214;SDS011;24932;51.746;14.334;2023-03-14T19:28:41;3.5;;;2.07;;
39214;SDS011;24932;51.746;14.334;2023-03-14T19:32:40;4.27;;;2.0;;
39214;SDS011;24932;51.746;14.334;2023-03-14T19:36:40;1.43;;;1.1;;
39214;SDS011;24932;51.746;14.334;2023-03-14T19:40:41;5.93;;;2.3;;
39214;SDS011;24932;51.746;14.334;2023-03-14T19:44:40;6.87;;;1.7;;
39214;SDS011;24932;51.746;14.334;2023-03-14T19:48:40;8.83;;;2.03;;
39214;SDS011;24932;51.746;14.334;2023-03-14T19:52:40;7.33;;;1.8;;
39214;SDS011;24932;51.746;14.334;2023-03-14T19:56:40;4.87;;;1.97;;
39214;SDS011;24932;51.746;14.334;2023-03-14T20:00:40;4.8;;;1.8;;
39214;SDS011;24932;51.746;14.334;2023-03-14T20:04:41;7.1;;;1.8;;
39214;SDS011;24932;51.746;14.334;2023-03-14T20:08:40;13.77;;;2.0;;
39214;SDS011;24932;51.746;14.334;2023-03-14T20:12:40;9.17;;;1.93;;
39214;SDS011;24932;51.746;14.334;2023-03-14T20:16:40;6.5;;;1.67;;
39214;SDS011;24932;51.746;14.334;2023-03-14T20:20:41;4.03;;;1.5;;
39214;SDS011;24932;51.746;14.334;2023-03-14T20:24:40;5.6;;;2.1;;
39214;SDS011;24932;51.746;14.334;2023-03-14T20:28:41;6.5;;;1.5;;
39214;SDS011;24932;51.746;14.334;2023-03-14T20:32:41;11.67;;;2.6;;
39214;SDS011;24932;51.746;14.334;2023-03-14T20:36:40;1.53;;;1.0;;
39214;SDS011;24932;51.746;14.334;2023-03-14T20:40:44;13.97;;;1.37;;
39214;SDS011;24932;51.746;14.334;2023-03-14T20:44:40;5.87;;;1.4;;
39214;SDS011;24932;51.746;14.334;2023-03-14T20:48:41;12.03;;;1.9;;
39214;SDS011;24932;51.746;14.334;2023-03-14T20:52:40;14.83;;;1.6;;
39214;SDS011;24932;51.746;14.334;2023-03-14T20:56:39;7.7;;;2.0;;
39214;SDS011;24932;51.746;14.334;2023-03-14T21:00:43;7.3;;;2.07;;
39214;SDS011;24932;51.746;14.334;2023-03-14T21:04:40;9.5;;;1.6;;
39214;SDS011;24932;51.746;14.334;2023-03-14T21:08:40;7.27;;;2.07;;
39214;SDS011;24932;51.746;14.334;2023-03-14T21:12:41;5.33;;;1.23;;
39214;SDS011;24932;51.746;14.334;2023-03-14T21:16:40;3.37;;;1.77;;
39214;SDS011;24932;51.746;14.334;2023-03-14T21:20:40;6.23;;;1.2;;
39214;SDS011;24932;51.746;14.334;2023-03-14T21:24:40;11.6;;;3.5;;
39214;SDS011;24932;51.746;14.334;2023-03-14T21:28:40;11.47;;;1.77;;
39214;SDS011;24932;51.746;14.334;2023-03-14T21:32:40;8.73;;;1.83;;
39214;SDS011;24932;51.746;14.334;2023-03-14T21:36:40;11.07;;;1.97;;
39214;SDS011;24932;51.746;14.334;2023-03-14T21:40:40;14.77;;;1.63;;
39214;SDS011;24932;51.746;14.334;2023-03-14T21:44:40;3.83;;;1.4;;
39214;SDS011;24932;51.746;14.334;2023-03-14T21:48:40;17.13;;;2.07;;
39214;SDS011;24932;51.746;14.334;2023-03-14T21:52:40;6.63;;;0.93;;
39214;SDS011;24932;51.746;14.334;2023-03-14T21:56:41;15.73;;;3.1;;
39214;SDS011;24932;51.746;14.334;2023-03-14T22:00:40;8.27;;;1.5;;
39214;SDS011;24932;51.746;14.334;2023-03-14T22:04:40;8.7;;;1.4;;
39214;SDS011;24932;51.746;14.334;2023-03-14T22:08:40;7.03;;;2.5;;
39214;SDS011;24932;51.746;14.334;2023-03-14T22:12:41;9.23;;;2.07;;
39214;SDS011;24932;51.746;14.334;2023-03-14T22:16:40;7.77;;;1.4;;
39214;SDS011;24932;51.746;14.334;2023-03-14T22:20:40;18.57;;;2.8;;
39214;SDS011;24932;51.746;14.334;2023-03-14T22:24:41;9.07;;;2.27;;
39214;SDS011;24932;51.746;14.334;2023-03-14T22:28:40;12.47;;;1.83;;
39214;SDS011;24932;51.746;14.334;2023-03-14T22:32:41;18.63;;;2.53;;
39214;SDS011;24932;51.746;14.334;2023-03-14T22:36:40;16.3;;;2.43;;
39214;SDS011;24932;51.746;14.334;2023-03-14T22:40:40;14.97;;;2.6;;
39214;SDS011;24932;51.746;14.334;2023-03-14T22:44:40;3.77;;;0.93;;
39214;SDS011;24932;51.746;14.334;2023-03-14T22:48:41;13.4;;;2.47;;
39214;SDS011;24932;51.746;14.334;2023-03-14T22:52:40;6.47;;;1.27;;
39214;SDS011;24932;51.746;14.334;2023-03-14T22:56:40;6.3;;;1.47;;
39214;SDS011;24932;51.746;14.334;2023-03-14T23:00:40;11.4;;;0.67;;
39214;SDS011;24932;51.746;14.334;2023-03-14T23:04:39;3.3;;;0.63;;
39214;SDS011;24932;51.746;14.334;2023-03-14T23:08:40;12.17;;;1.6;;
39214;SDS011;24932;51.746;14.334;2023-03-14T23:12:39;5.6;;;1.33;;
39214;SDS011;24932;51.746;14.334;2023-03-14T23:16:41;10.5;;;1.83;;
39214;SDS011;24932;51.746;14.334;2023-03-14T23:20:40;9.73;;;2.0;;
39214;SDS011;24932;51.746;14.334;2023-03-14T23:24:40;13.5;;;1.53;;
39214;SDS011;24932;51.746;14.334;2023-03-14T23:28:41;15.93;;;2.73;;
39214;SDS011;24932;51.746;14.334;2023-03-14T23:32:40;11.43;;;1.93;;
39214;SDS011;24932;51.746;14.334;2023-03-14T23:36:40;3.93;;;1.73;;
39214;SDS011;24932;51.746;14.334;2023-03-14T23:40:40;5.93;;;1.63;;
39214;SDS011;24932;51.746;14.334;2023-03-14T23:44:40;2.23;;;0.8;;
39214;SDS011;24932;51.746;14.334;2023-03-14T23:48:40;18.27;;;1.8;;
39214;SDS011;24932;51.746;14.334;2023-03-14T23:52:40;10.87;;;1.97;;
39214;SDS011;24932;51.746;14.334;2023-03-14T23:56:40;13.07;;;1.7;;
